Orbital elements of FENGYUN 1C DEB
| Launched | 9 May 1999 |
| Flight ended | – |
| Launch site | Taiyuan Space Center, PRC |
| Owner | People's Republic of China |
| NORAD ID | 30309 |
| Date fetched |
Epoch osculation |
Inc. [°] |
Ecc. | RA asc node [hr] |
Arg Peri. [°] |
Mean anom [°] |
Mean motion [rev/day] |
Abs. mag |
| Date fetched |
Epoch osculation |
Inc. [°] |
Ecc. | RA asc node [hr] |
Arg Peri. [°] |
Mean anom [°] |
Mean motion [rev/day] |
Abs. mag |
| 2026 May 03 17:57 | 2026 Apr 30 02:30:37 | 99.2018 | 0.00936 | 12.1185 | 175.8813 | 184.3139 | 13.93628 | – |
| 2026 May 02 17:57 | 2026 Apr 30 02:30:37 | 99.2018 | 0.00936 | 12.1185 | 175.8813 | 184.3139 | 13.93628 | – |
| 2026 May 01 17:56 | 2026 Apr 30 02:30:37 | 99.2018 | 0.00936 | 12.1185 | 175.8813 | 184.3139 | 13.93628 | – |
| 2026 Apr 30 17:56 | 2026 Apr 30 02:30:37 | 99.2018 | 0.00936 | 12.1185 | 175.8813 | 184.3139 | 13.93628 | – |
| 2026 Apr 29 17:57 | 2026 Apr 24 03:29:41 | 99.2025 | 0.00933 | 11.7231 | 192.0199 | 184.3139 | 13.93628 | – |
| 2026 Apr 28 17:56 | 2026 Apr 24 03:29:41 | 99.2025 | 0.00933 | 11.7231 | 192.0199 | 184.3139 | 13.93628 | – |
| 2026 Apr 27 17:58 | 2026 Apr 24 03:29:41 | 99.2025 | 0.00933 | 11.7231 | 192.0199 | 184.3139 | 13.93628 | – |
| 2026 Apr 26 17:58 | 2026 Apr 24 03:29:41 | 99.2025 | 0.00933 | 11.7231 | 192.0199 | 184.3139 | 13.93628 | – |
| 2026 Apr 25 17:58 | 2026 Apr 24 03:29:41 | 99.2025 | 0.00933 | 11.7231 | 192.0199 | 184.3139 | 13.93628 | – |
| 2026 Apr 24 17:59 | 2026 Apr 24 03:29:41 | 99.2025 | 0.00933 | 11.7231 | 192.0199 | 184.3139 | 13.93628 | – |
| 2026 Apr 23 17:57 | 2026 Apr 19 02:52:44 | 99.2034 | 0.00930 | 11.3895 | 205.6769 | 184.3139 | 13.93628 | – |
| 2026 Apr 22 17:57 | 2026 Apr 19 02:52:44 | 99.2034 | 0.00930 | 11.3895 | 205.6769 | 184.3139 | 13.93628 | – |
| 2026 Apr 21 17:57 | 2026 Apr 19 02:52:44 | 99.2034 | 0.00930 | 11.3895 | 205.6769 | 184.3139 | 13.93628 | – |
| 2026 Apr 20 17:57 | 2026 Apr 19 02:52:44 | 99.2034 | 0.00930 | 11.3895 | 205.6769 | 184.3139 | 13.93628 | – |
| 2026 Apr 19 17:58 | 2026 Apr 19 02:52:44 | 99.2034 | 0.00930 | 11.3895 | 205.6769 | 184.3139 | 13.93628 | – |
| 2026 Apr 18 17:56 | 2026 Apr 13 02:08:24 | 99.2039 | 0.00927 | 10.9893 | 222.0948 | 184.3139 | 13.93628 | – |
| 2026 Apr 16 17:57 | 2026 Apr 13 02:08:24 | 99.2039 | 0.00927 | 10.9893 | 222.0948 | 184.3139 | 13.93628 | – |
| 2026 Apr 14 17:57 | 2026 Apr 13 02:08:24 | 99.2039 | 0.00927 | 10.9893 | 222.0948 | 184.3139 | 13.93628 | – |
| 2026 Apr 13 17:57 | 2026 Apr 13 02:08:24 | 99.2039 | 0.00927 | 10.9893 | 222.0948 | 184.3139 | 13.93628 | – |
| 2026 Apr 12 17:57 | 2026 Apr 08 15:18:32 | 99.2046 | 0.00925 | 10.6938 | 234.2563 | 184.3139 | 13.93628 | – |
| 2026 Apr 11 17:57 | 2026 Apr 08 15:18:32 | 99.2046 | 0.00925 | 10.6938 | 234.2563 | 184.3139 | 13.93628 | – |
| 2026 Apr 10 17:58 | 2026 Apr 08 15:18:32 | 99.2046 | 0.00925 | 10.6938 | 234.2563 | 184.3139 | 13.93628 | – |
| 2026 Apr 09 18:01 | 2026 Apr 08 15:18:32 | 99.2046 | 0.00925 | 10.6938 | 234.2563 | 184.3139 | 13.93628 | – |
| 2026 Apr 08 17:57 | 2026 Apr 08 15:18:32 | 99.2046 | 0.00925 | 10.6938 | 234.2563 | 184.3139 | 13.93628 | – |
| 2026 Apr 07 17:57 | 2026 Apr 02 02:30:30 | 99.2059 | 0.00922 | 10.2601 | 252.1595 | 184.3139 | 13.93628 | – |
| 2026 Apr 06 17:57 | 2026 Apr 02 02:30:30 | 99.2059 | 0.00922 | 10.2601 | 252.1595 | 184.3139 | 13.93628 | – |